Time;durP1;ratioP1;P1;durP2;ratioP2;P2;SDS_P1;SDS_P2;PMS_P1;PMS_P2;Temp;Humidity;BMP_temperature;BMP_pressure;BME280_temperature;BME280_humidity;BME280_pressure;Samples;Min_cycle;Max_cycle;Signal;HPM_P1;HPM_P2
2023/11/02 00:01:38;;;;;;;0.30;0.20;;;13.30;99.90;;;;;;5086061;28;20492;-92
2023/11/02 00:04:04;;;;;;;0.30;0.20;;;13.30;99.90;;;;;;5086079;28;20722;-88
2023/11/02 00:06:37;;;;;;;0.30;0.20;;;13.30;99.90;;;;;;5087141;28;20425;-87
2023/11/02 00:09:15;;;;;;;0.30;0.20;;;13.30;99.90;;;;;;5086596;28;20184;-91
2023/11/02 00:12:01;;;;;;;0.30;0.20;;;13.20;99.90;;;;;;5093916;28;20439;-91
2023/11/02 00:14:32;;;;;;;0.30;0.20;;;13.20;99.90;;;;;;5087427;28;20539;-89
2023/11/02 00:16:58;;;;;;;0.30;0.20;;;13.20;99.90;;;;;;5088049;28;20402;-92
2023/11/02 00:19:30;;;;;;;0.40;0.20;;;13.20;99.90;;;;;;5085699;28;20492;-92
2023/11/02 00:21:58;;;;;;;0.30;0.20;;;13.20;99.90;;;;;;5086785;28;20503;-92
2023/11/02 00:24:26;;;;;;;0.30;0.20;;;13.20;99.90;;;;;;5086091;28;20459;-88
2023/11/02 00:26:51;;;;;;;0.30;0.20;;;13.10;99.90;;;;;;5085516;28;20780;-92
2023/11/02 00:29:17;;;;;;;0.30;0.20;;;13.10;99.90;;;;;;5086284;28;20448;-92
2023/11/02 00:31:43;;;;;;;0.30;0.20;;;13.10;99.90;;;;;;5092399;28;20191;-88
2023/11/02 00:34:10;;;;;;;0.40;0.20;;;13.00;99.90;;;;;;5089243;28;20605;-93
2023/11/02 00:36:36;;;;;;;0.30;0.20;;;13.00;99.90;;;;;;5087670;28;20572;-88
2023/11/02 00:39:03;;;;;;;0.30;0.20;;;13.00;99.90;;;;;;5085365;28;20448;-92
2023/11/02 00:41:29;;;;;;;0.30;0.30;;;13.00;99.90;;;;;;5086964;28;20416;-89
2023/11/02 00:43:54;;;;;;;0.30;0.20;;;12.90;99.90;;;;;;5085716;28;20968;-87
2023/11/02 00:46:21;;;;;;;0.30;0.20;;;13.00;99.90;;;;;;5085475;28;20617;-92
2023/11/02 00:48:48;;;;;;;2.20;2.10;;;13.00;99.90;;;;;;5085790;28;20203;-88
2023/11/02 00:51:20;;;;;;;0.67;0.60;;;13.00;99.90;;;;;;5086878;28;20872;-91
2023/11/02 00:53:52;;;;;;;0.40;0.20;;;13.00;99.90;;;;;;5086564;28;20452;-92
2023/11/02 00:56:19;;;;;;;0.30;0.20;;;13.00;99.90;;;;;;5086501;28;20491;-92
2023/11/02 00:58:53;;;;;;;1.23;0.70;;;13.00;99.90;;;;;;5085441;28;20436;-91
2023/11/02 01:01:23;;;;;;;0.30;0.20;;;12.90;99.90;;;;;;5086319;28;20496;-92
2023/11/02 01:03:55;;;;;;;0.30;0.20;;;12.90;99.90;;;;;;5087299;28;20444;-92
2023/11/02 01:06:25;;;;;;;0.30;0.20;;;12.90;99.90;;;;;;5086309;28;20409;-92
2023/11/02 01:08:59;;;;;;;1.93;1.83;;;12.90;99.90;;;;;;5089540;28;20999;-88
2023/11/02 01:11:34;;;;;;;0.30;0.20;;;12.90;99.90;;;;;;5088330;28;20441;-92
2023/11/02 01:14:08;;;;;;;0.40;0.40;;;12.90;99.90;;;;;;5090936;28;20431;-88
2023/11/02 01:16:34;;;;;;;0.40;0.20;;;13.00;99.90;;;;;;5090644;28;20496;-92
2023/11/02 01:18:59;;;;;;;0.30;0.20;;;13.00;99.90;;;;;;5090518;28;20472;-92
2023/11/02 01:21:26;;;;;;;0.40;0.20;;;13.00;99.90;;;;;;5091480;28;20203;-90
2023/11/02 01:24:02;;;;;;;0.57;0.57;;;13.00;99.90;;;;;;5088972;28;20215;-88
2023/11/02 01:27:00;;;;;;;0.30;0.20;;;13.00;99.90;;;;;;5089344;28;20503;-87
2023/11/02 01:29:29;;;;;;;0.30;0.30;;;13.00;99.90;;;;;;5088338;28;20539;-92
2023/11/02 01:31:55;;;;;;;0.30;0.20;;;13.00;99.90;;;;;;5091740;28;20395;-91
2023/11/02 01:34:23;;;;;;;0.30;0.20;;;13.00;99.90;;;;;;5090856;28;20448;-88
2023/11/02 01:36:52;;;;;;;0.30;0.20;;;12.90;99.90;;;;;;5088861;28;20439;-92
2023/11/02 01:39:21;;;;;;;0.30;0.20;;;12.90;99.90;;;;;;5089163;28;20448;-92
2023/11/02 01:42:14;;;;;;;0.30;0.20;;;12.90;99.90;;;;;;5089231;28;21078;-88
2023/11/02 01:44:58;;;;;;;0.30;0.20;;;12.90;99.90;;;;;;5090203;28;20969;-91
2023/11/02 01:47:45;;;;;;;0.30;0.20;;;12.90;99.90;;;;;;5090840;28;20389;-88
2023/11/02 01:50:30;;;;;;;0.30;0.20;;;12.80;99.90;;;;;;5091661;28;20752;-87
2023/11/02 01:53:20;;;;;;;0.30;0.20;;;12.80;99.90;;;;;;5094873;28;20446;-88
2023/11/02 01:56:07;;;;;;;0.97;0.87;;;12.80;99.90;;;;;;5088565;28;20472;-88
2023/11/02 01:58:48;;;;;;;0.30;0.20;;;12.80;99.90;;;;;;5096933;28;20445;-88
2023/11/02 02:02:05;;;;;;;2.27;2.17;;;12.80;99.90;;;;;;5088670;28;20945;-88
2023/11/02 02:05:01;;;;;;;1.27;1.27;;;12.80;99.90;;;;;;5062599;28;20456;-88
2023/11/02 02:07:56;;;;;;;0.30;0.20;;;12.70;99.90;;;;;;5103868;28;20169;-87
2023/11/02 02:10:52;;;;;;;0.33;0.30;;;12.70;99.90;;;;;;5088591;28;20417;-88
2023/11/02 02:13:46;;;;;;;0.40;0.20;;;12.70;99.90;;;;;;5088069;28;20441;-87
2023/11/02 02:16:46;;;;;;;0.30;0.30;;;12.70;99.90;;;;;;5089128;28;20478;-88
2023/11/02 02:19:43;;;;;;;0.73;0.73;;;12.70;99.90;;;;;;5088506;28;20432;-91
2023/11/02 02:22:15;;;;;;;0.30;0.20;;;12.70;99.90;;;;;;5089115;28;20409;-92
2023/11/02 02:24:49;;;;;;;0.35;0.20;;;12.60;99.90;;;;;;5091034;28;20440;-88
2023/11/02 02:27:36;;;;;;;2.33;1.33;;;12.60;99.90;;;;;;5088135;28;20181;-88
2023/11/02 02:30:17;;;;;;;0.30;0.30;;;12.60;99.90;;;;;;5088289;28;20650;-88
2023/11/02 02:33:09;;;;;;;0.30;0.20;;;12.60;99.90;;;;;;5087918;28;20180;-92
2023/11/02 02:35:59;;;;;;;0.97;0.97;;;12.60;99.90;;;;;;5087372;28;20236;-92
2023/11/02 02:38:43;;;;;;;0.40;0.37;;;12.60;99.90;;;;;;5088820;28;21198;-91
2023/11/02 02:41:11;;;;;;;0.30;0.20;;;12.50;99.90;;;;;;5094315;28;20431;-93
2023/11/02 02:43:38;;;;;;;0.30;0.20;;;12.50;99.90;;;;;;5088238;28;20490;-88
2023/11/02 02:46:06;;;;;;;0.30;0.20;;;12.50;99.90;;;;;;5089129;28;20200;-92
2023/11/02 02:48:34;;;;;;;0.40;0.30;;;12.50;99.90;;;;;;5091817;28;20451;-92
2023/11/02 02:51:03;;;;;;;0.33;0.20;;;12.50;99.90;;;;;;5096814;28;20443;-92
2023/11/02 02:53:32;;;;;;;0.30;0.20;;;12.50;99.90;;;;;;5103189;28;20444;-86
2023/11/02 02:56:08;;;;;;;6.28;2.70;;;12.50;99.90;;;;;;5087604;28;20798;-92
2023/11/02 02:58:53;;;;;;;0.30;0.20;;;12.50;99.90;;;;;;5096922;28;20430;-91
2023/11/02 03:01:21;;;;;;;0.30;0.20;;;12.50;99.90;;;;;;5101364;28;20493;-87
2023/11/02 03:03:48;;;;;;;0.30;0.20;;;12.40;99.90;;;;;;5097727;28;20188;-92
2023/11/02 03:06:17;;;;;;;0.30;0.20;;;12.40;99.90;;;;;;5088238;28;20773;-87
2023/11/02 03:08:45;;;;;;;0.30;0.20;;;12.40;99.90;;;;;;5087207;28;20456;-87
2023/11/02 03:11:14;;;;;;;0.50;0.50;;;12.40;99.90;;;;;;5086310;28;20203;-93
2023/11/02 03:13:42;;;;;;;1.03;1.03;;;12.40;99.90;;;;;;5087461;28;20682;-87
2023/11/02 03:16:13;;;;;;;0.30;0.20;;;12.40;99.90;;;;;;5087946;28;20797;-91
2023/11/02 03:18:39;;;;;;;1.15;1.15;;;12.30;99.90;;;;;;5087455;28;20196;-91
2023/11/02 03:21:06;;;;;;;0.30;0.20;;;12.30;99.90;;;;;;5087081;28;20338;-88
2023/11/02 03:23:56;;;;;;;0.30;0.20;;;12.20;99.90;;;;;;5088113;28;20438;-92
2023/11/02 03:26:46;;;;;;;0.30;0.20;;;12.20;99.90;;;;;;5086515;28;20175;-87
2023/11/02 03:29:15;;;;;;;0.30;0.20;;;12.20;99.90;;;;;;5086585;28;20200;-93
2023/11/02 03:31:43;;;;;;;0.40;0.40;;;12.20;99.90;;;;;;5087034;28;20254;-87
2023/11/02 03:34:31;;;;;;;0.30;0.20;;;12.10;99.90;;;;;;5086054;28;20236;-93
2023/11/02 03:37:07;;;;;;;0.30;0.20;;;12.10;99.90;;;;;;5086966;28;20208;-92
2023/11/02 03:39:47;;;;;;;0.30;0.20;;;12.00;99.90;;;;;;5086461;28;20448;-92
2023/11/02 03:42:27;;;;;;;0.30;0.20;;;12.00;99.90;;;;;;5088917;28;20168;-92
2023/11/02 03:45:08;;;;;;;0.30;0.20;;;12.00;99.90;;;;;;5087968;28;20188;-88
2023/11/02 03:48:02;;;;;;;0.30;0.20;;;12.00;99.90;;;;;;5086708;28;20172;-88
2023/11/02 03:50:35;;;;;;;0.30;0.20;;;12.00;99.90;;;;;;5086362;28;20420;-88
2023/11/02 03:53:21;;;;;;;0.30;0.20;;;11.80;99.90;;;;;;5087945;28;20231;-89
2023/11/02 03:55:51;;;;;;;0.30;0.20;;;11.80;99.90;;;;;;5075238;28;20224;-87
2023/11/02 03:58:35;;;;;;;0.30;0.20;;;11.80;99.90;;;;;;5085885;28;20565;-87
2023/11/02 04:01:30;;;;;;;0.52;0.52;;;11.80;99.90;;;;;;5086628;28;20206;-88
2023/11/02 04:04:04;;;;;;;0.40;0.20;;;11.90;99.90;;;;;;5087938;28;20237;-92
2023/11/02 04:07:01;;;;;;;0.30;0.20;;;11.80;99.90;;;;;;5087750;28;20402;-93
2023/11/02 04:09:35;;;;;;;0.30;0.20;;;11.90;99.90;;;;;;5068835;28;20208;-88
2023/11/02 04:12:16;;;;;;;0.30;0.20;;;11.90;99.90;;;;;;5087530;28;20218;-88
2023/11/02 04:14:44;;;;;;;2.03;1.90;;;12.00;99.90;;;;;;5084178;28;21043;-92
2023/11/02 04:17:11;;;;;;;0.30;0.20;;;12.00;99.90;;;;;;5086774;28;20452;-91
2023/11/02 04:19:38;;;;;;;0.40;0.40;;;12.00;99.90;;;;;;5086015;28;20292;-87
2023/11/02 04:22:05;;;;;;;0.30;0.20;;;12.00;99.90;;;;;;5086586;28;20188;-91
2023/11/02 04:24:31;;;;;;;0.40;0.20;;;12.10;99.90;;;;;;5085286;28;20200;-92
2023/11/02 04:26:57;;;;;;;0.40;0.40;;;12.10;99.90;;;;;;5085892;28;20203;-88
2023/11/02 04:29:23;;;;;;;0.30;0.20;;;12.20;99.90;;;;;;5087778;28;20448;-88
2023/11/02 04:31:48;;;;;;;0.30;0.20;;;12.30;99.90;;;;;;5085202;28;20229;-88
2023/11/02 04:34:14;;;;;;;0.30;0.20;;;12.30;99.90;;;;;;5086620;28;20239;-88
2023/11/02 04:36:40;;;;;;;0.30;0.20;;;12.40;99.90;;;;;;5085944;28;20464;-92
2023/11/02 04:39:05;;;;;;;0.60;0.60;;;12.40;99.90;;;;;;5085800;28;20287;-92
2023/11/02 04:41:31;;;;;;;0.30;0.20;;;12.40;99.90;;;;;;5087099;28;20200;-92
2023/11/02 04:43:57;;;;;;;1.03;0.97;;;12.40;99.90;;;;;;5086030;28;20246;-92
2023/11/02 04:46:23;;;;;;;1.37;1.33;;;12.40;99.90;;;;;;5085496;28;20176;-88
2023/11/02 04:48:49;;;;;;;2.20;2.10;;;12.30;99.90;;;;;;5084495;28;20444;-87
2023/11/02 04:51:14;;;;;;;1.17;1.17;;;12.30;99.90;;;;;;5085777;28;20328;-92
2023/11/02 04:53:41;;;;;;;1.10;1.07;;;12.30;99.90;;;;;;5088435;28;20220;-88
2023/11/02 04:56:07;;;;;;;0.30;0.20;;;12.30;99.90;;;;;;5085180;28;20657;-92
2023/11/02 04:58:32;;;;;;;0.40;0.30;;;12.30;99.90;;;;;;5085881;28;20945;-88
2023/11/02 05:00:58;;;;;;;1.23;1.23;;;12.40;99.90;;;;;;5091792;28;20365;-87
2023/11/02 05:03:24;;;;;;;0.30;0.20;;;12.30;99.90;;;;;;5092051;28;20371;-88
2023/11/02 05:05:50;;;;;;;0.50;0.50;;;12.20;99.90;;;;;;5093498;28;20548;-92
2023/11/02 05:08:16;;;;;;;0.30;0.20;;;12.20;99.90;;;;;;5085961;28;20269;-88
2023/11/02 05:10:41;;;;;;;0.30;0.20;;;12.10;99.90;;;;;;5085338;28;20177;-88
2023/11/02 05:13:07;;;;;;;1.03;1.03;;;12.10;99.90;;;;;;5096786;28;20569;-87
2023/11/02 05:15:33;;;;;;;1.13;1.13;;;12.10;99.90;;;;;;5085784;28;20244;-87
2023/11/02 05:17:58;;;;;;;0.30;0.20;;;12.10;99.90;;;;;;5106078;28;20268;-87
2023/11/02 05:20:25;;;;;;;0.30;0.20;;;12.10;99.90;;;;;;5104689;28;20420;-88
2023/11/02 05:22:50;;;;;;;0.30;0.20;;;12.00;99.90;;;;;;5105898;28;20709;-92
2023/11/02 05:25:16;;;;;;;0.30;0.20;;;12.00;99.90;;;;;;5105207;28;20184;-92
2023/11/02 05:27:42;;;;;;;0.30;0.20;;;12.00;99.90;;;;;;5099563;28;20263;-90
2023/11/02 05:30:08;;;;;;;0.30;0.20;;;12.00;99.90;;;;;;5084684;28;20177;-93
2023/11/02 05:32:34;;;;;;;0.30;0.20;;;12.00;99.90;;;;;;5086498;28;20173;-93
2023/11/02 05:34:59;;;;;;;0.30;0.20;;;12.00;99.90;;;;;;5084993;28;20567;-92
2023/11/02 05:37:25;;;;;;;0.30;0.20;;;12.00;99.90;;;;;;5086496;28;20333;-91
2023/11/02 05:39:52;;;;;;;1.40;1.30;;;12.00;99.90;;;;;;5084626;28;20208;-87
2023/11/02 05:42:18;;;;;;;0.30;0.20;;;12.00;99.90;;;;;;5084794;28;20184;-87
2023/11/02 05:44:43;;;;;;;0.30;0.20;;;12.10;99.90;;;;;;5083941;28;20222;-87
2023/11/02 05:47:09;;;;;;;0.30;0.20;;;12.00;99.90;;;;;;5086700;28;20173;-90
2023/11/02 05:49:35;;;;;;;0.30;0.20;;;12.00;99.90;;;;;;5085729;28;20489;-91
2023/11/02 05:52:00;;;;;;;1.27;1.27;;;12.00;99.90;;;;;;5097784;28;20211;-92
2023/11/02 05:54:26;;;;;;;0.30;0.20;;;12.00;99.90;;;;;;5085451;28;20569;-89
2023/11/02 05:56:52;;;;;;;5.47;2.43;;;12.00;99.90;;;;;;5097777;28;20215;-89
2023/11/02 05:59:17;;;;;;;0.30;0.20;;;12.10;99.90;;;;;;5109131;28;20466;-91
2023/11/02 06:01:44;;;;;;;3.63;3.43;;;12.00;99.90;;;;;;5110649;28;20187;-92
2023/11/02 06:04:10;;;;;;;0.30;0.30;;;12.00;99.90;;;;;;5118355;28;20219;-92
2023/11/02 06:06:36;;;;;;;1.17;1.17;;;12.00;99.90;;;;;;5118831;28;20202;-92
2023/11/02 06:09:02;;;;;;;4.03;1.60;;;11.90;99.90;;;;;;5109722;28;20922;-88
2023/11/02 06:11:28;;;;;;;0.30;0.20;;;11.90;99.90;;;;;;5107196;28;20347;-93
2023/11/02 06:13:55;;;;;;;0.30;0.20;;;11.80;99.90;;;;;;5111485;28;20474;-92
2023/11/02 06:16:22;;;;;;;0.30;0.20;;;11.80;99.90;;;;;;5107291;28;20229;-88
2023/11/02 06:18:49;;;;;;;0.30;0.30;;;11.80;99.90;;;;;;5108595;28;20753;-92
2023/11/02 06:21:15;;;;;;;0.30;0.20;;;11.80;99.90;;;;;;5100362;28;20176;-93
2023/11/02 06:23:41;;;;;;;0.30;0.20;;;11.80;99.90;;;;;;5107806;28;20199;-92
2023/11/02 06:26:06;;;;;;;0.60;0.60;;;11.80;99.90;;;;;;5108014;28;20232;-87
2023/11/02 06:28:33;;;;;;;0.30;0.20;;;11.80;99.90;;;;;;5106275;28;20195;-92
2023/11/02 06:31:01;;;;;;;0.30;0.20;;;11.80;99.90;;;;;;5096889;28;20191;-88
2023/11/02 06:33:30;;;;;;;0.30;0.20;;;11.80;99.90;;;;;;5096646;28;20192;-88
2023/11/02 06:35:56;;;;;;;0.30;0.20;;;11.80;99.90;;;;;;5094631;28;20214;-92
2023/11/02 06:38:22;;;;;;;0.30;0.20;;;11.80;99.90;;;;;;5088256;28;20275;-88
2023/11/02 06:40:51;;;;;;;16.87;4.70;;;11.80;99.90;;;;;;5097910;28;20290;-87
2023/11/02 06:43:17;;;;;;;0.30;0.20;;;11.80;99.90;;;;;;5105967;28;20534;-88
2023/11/02 06:45:42;;;;;;;1.00;0.97;;;11.70;99.90;;;;;;5106636;28;20508;-92
2023/11/02 06:48:08;;;;;;;0.30;0.30;;;11.60;99.90;;;;;;5107682;28;20477;-87
2023/11/02 06:50:34;;;;;;;0.70;0.70;;;11.60;99.90;;;;;;5102666;28;20443;-87
2023/11/02 06:53:00;;;;;;;0.30;0.20;;;11.60;99.90;;;;;;5094194;28;20211;-87
2023/11/02 06:55:25;;;;;;;0.30;0.20;;;11.60;99.90;;;;;;5084949;28;20239;-91
2023/11/02 06:57:51;;;;;;;1.03;1.03;;;11.70;99.90;;;;;;5069187;28;20629;-88
2023/11/02 07:00:17;;;;;;;0.30;0.20;;;11.80;99.90;;;;;;5085790;28;20223;-92
2023/11/02 07:02:43;;;;;;;0.30;0.20;;;12.00;99.90;;;;;;5086731;28;20173;-88
2023/11/02 07:05:09;;;;;;;1.63;1.53;;;12.20;99.90;;;;;;5096298;28;20293;-92
2023/11/02 07:07:40;;;;;;;0.30;0.30;;;12.50;99.90;;;;;;5109334;28;20892;-88
2023/11/02 07:10:08;;;;;;;0.40;0.40;;;12.80;99.90;;;;;;5114247;28;20432;-92
2023/11/02 07:12:34;;;;;;;0.30;0.20;;;13.00;99.90;;;;;;5106518;28;20413;-91
2023/11/02 07:15:00;;;;;;;0.30;0.20;;;13.20;99.90;;;;;;5093756;28;20480;-92
2023/11/02 07:17:26;;;;;;;0.30;0.20;;;13.40;99.90;;;;;;5103718;27;20492;-92
2023/11/02 07:19:53;;;;;;;0.30;0.23;;;13.50;99.90;;;;;;5097352;28;20507;-88
2023/11/02 07:22:19;;;;;;;0.30;0.20;;;13.60;99.90;;;;;;5100351;28;20427;-92
2023/11/02 07:24:45;;;;;;;0.30;0.20;;;13.80;99.90;;;;;;5111220;28;20516;-92
2023/11/02 07:27:11;;;;;;;0.40;0.20;;;14.10;99.90;;;;;;5094139;28;20936;-92
2023/11/02 07:29:37;;;;;;;0.30;0.20;;;14.40;99.90;;;;;;5101012;28;20473;-89
2023/11/02 07:32:04;;;;;;;0.30;0.20;;;14.70;99.90;;;;;;5101033;28;20807;-87
2023/11/02 07:34:31;;;;;;;1.17;1.17;;;14.90;99.90;;;;;;5112872;28;20703;-92
2023/11/02 07:36:57;;;;;;;3.13;1.70;;;14.90;99.90;;;;;;5114721;28;20541;-91
2023/11/02 07:39:23;;;;;;;0.50;0.40;;;15.10;99.90;;;;;;5116111;28;20204;-92
2023/11/02 07:41:49;;;;;;;0.40;0.20;;;15.70;99.90;;;;;;5113730;28;20453;-87
2023/11/02 07:44:15;;;;;;;0.40;0.20;;;16.40;99.90;;;;;;5106927;28;20601;-92
2023/11/02 07:46:41;;;;;;;0.77;0.77;;;17.00;99.90;;;;;;5111547;28;20385;-87
2023/11/02 07:49:07;;;;;;;0.40;0.20;;;17.50;99.90;;;;;;5108272;28;20471;-88
2023/11/02 07:51:33;;;;;;;0.70;0.70;;;17.90;99.90;;;;;;5101951;28;20407;-92
2023/11/02 07:53:59;;;;;;;0.40;0.37;;;18.30;99.90;;;;;;5085063;28;20445;-93
2023/11/02 07:56:25;;;;;;;0.40;0.20;;;18.70;99.90;;;;;;5084733;28;20209;-88
2023/11/02 07:58:51;;;;;;;0.30;0.20;;;19.00;99.90;;;;;;5082430;28;20783;-92
2023/11/02 08:01:19;;;;;;;0.30;0.20;;;19.10;99.90;;;;;;5083508;28;20537;-92
2023/11/02 08:03:45;;;;;;;0.97;0.50;;;18.90;99.90;;;;;;5084571;28;20243;-93
2023/11/02 08:06:11;;;;;;;0.30;0.20;;;18.70;99.90;;;;;;5084134;28;20837;-88
2023/11/02 08:08:37;;;;;;;1.63;1.53;;;18.30;99.90;;;;;;5085106;28;20561;-88
2023/11/02 08:11:03;;;;;;;0.30;0.30;;;18.00;99.90;;;;;;5084888;28;20479;-88
2023/11/02 08:13:31;;;;;;;0.40;0.30;;;17.80;99.90;;;;;;5085833;28;20533;-92
2023/11/02 08:15:57;;;;;;;0.30;0.20;;;17.50;99.90;;;;;;5085950;28;20896;-91
2023/11/02 08:18:23;;;;;;;0.40;0.20;;;17.30;99.90;;;;;;5084991;28;20443;-92
2023/11/02 08:20:49;;;;;;;0.30;0.20;;;17.10;99.90;;;;;;5083851;28;20395;-92
2023/11/02 08:23:16;;;;;;;0.50;0.43;;;16.90;99.90;;;;;;5081445;28;20593;-92
2023/11/02 08:25:42;;;;;;;0.30;0.20;;;16.70;99.90;;;;;;5081682;28;20641;-88
2023/11/02 08:28:08;;;;;;;0.30;0.20;;;16.50;99.90;;;;;;5084005;28;20427;-93
2023/11/02 08:30:34;;;;;;;0.30;0.30;;;16.50;99.90;;;;;;5083649;28;20174;-88
2023/11/02 08:32:59;;;;;;;0.30;0.30;;;16.60;99.90;;;;;;5088835;28;20521;-87
2023/11/02 08:35:25;;;;;;;0.40;0.20;;;16.70;99.90;;;;;;5083256;28;20232;-88
2023/11/02 08:37:52;;;;;;;0.40;0.30;;;16.60;99.90;;;;;;5085622;28;20315;-92
2023/11/02 08:40:20;;;;;;;0.40;0.20;;;16.50;99.90;;;;;;5082606;28;20421;-87
2023/11/02 08:42:47;;;;;;;0.30;0.20;;;16.40;99.90;;;;;;5083102;28;20204;-93
2023/11/02 08:45:14;;;;;;;1.07;0.97;;;16.50;99.90;;;;;;5084290;28;20973;-91
2023/11/02 08:47:40;;;;;;;0.30;0.20;;;16.60;99.90;;;;;;5082291;28;20421;-87
2023/11/02 08:50:08;;;;;;;0.30;0.20;;;16.60;99.90;;;;;;5080589;28;20913;-92
2023/11/02 08:52:34;;;;;;;2.87;2.00;;;16.60;99.90;;;;;;5097315;28;20531;-87
2023/11/02 08:55:00;;;;;;;0.30;0.20;;;16.60;99.90;;;;;;5080956;28;20484;-92
2023/11/02 08:57:29;;;;;;;0.30;0.20;;;16.50;99.90;;;;;;5081305;28;21000;-92
2023/11/02 08:59:57;;;;;;;0.40;0.40;;;16.50;99.90;;;;;;5080886;28;20992;-87
2023/11/02 09:02:23;;;;;;;0.40;0.37;;;16.50;99.90;;;;;;5083002;28;20763;-92
2023/11/02 09:04:49;;;;;;;0.30;0.20;;;16.70;99.90;;;;;;5084341;28;20528;-93
2023/11/02 09:07:15;;;;;;;1.17;0.77;;;16.80;99.90;;;;;;5085542;28;20504;-88
2023/11/02 09:09:40;;;;;;;19.17;2.13;;;16.90;99.90;;;;;;5085556;28;20450;-92
2023/11/02 09:12:06;;;;;;;0.30;0.20;;;17.00;99.90;;;;;;5085934;28;20244;-88
2023/11/02 09:14:32;;;;;;;0.30;0.30;;;17.00;99.90;;;;;;5087047;28;20365;-92
2023/11/02 09:16:58;;;;;;;0.30;0.20;;;17.10;99.90;;;;;;5092709;28;20577;-91
2023/11/02 09:19:27;;;;;;;0.73;0.73;;;17.10;99.90;;;;;;5089046;28;20225;-88
2023/11/02 09:21:53;;;;;;;0.30;0.20;;;17.50;99.90;;;;;;5089706;28;20514;-92
2023/11/02 09:24:19;;;;;;;13.77;8.87;;;17.80;99.90;;;;;;5085816;28;20599;-89
2023/11/02 09:26:45;;;;;;;0.30;0.20;;;18.00;99.90;;;;;;5085687;28;20452;-94
2023/11/02 09:29:11;;;;;;;0.30;0.20;;;18.00;99.90;;;;;;5087635;28;20476;-93
2023/11/02 09:31:37;;;;;;;0.30;0.20;;;18.10;99.90;;;;;;5087508;28;20382;-93
2023/11/02 09:34:04;;;;;;;0.30;0.20;;;18.10;99.90;;;;;;5085628;28;20678;-93
2023/11/02 09:36:30;;;;;;;0.30;0.20;;;18.10;99.90;;;;;;5086995;28;20474;-92
2023/11/02 09:39:00;;;;;;;0.30;0.20;;;18.10;99.90;;;;;;5084085;28;20635;-93
2023/11/02 09:41:27;;;;;;;0.30;0.20;;;18.10;99.90;;;;;;5084613;28;20228;-94
2023/11/02 09:43:54;;;;;;;0.30;0.20;;;18.10;99.90;;;;;;5082853;28;20449;-89
2023/11/02 09:46:20;;;;;;;0.30;0.20;;;18.20;99.90;;;;;;5083919;28;20510;-92
2023/11/02 09:48:46;;;;;;;0.30;0.20;;;18.30;99.90;;;;;;5084213;28;20449;-90
2023/11/02 09:51:12;;;;;;;0.30;0.20;;;18.30;99.90;;;;;;5084063;28;20420;-93
2023/11/02 09:53:38;;;;;;;0.30;0.20;;;18.40;99.90;;;;;;5086275;28;20207;-94
2023/11/02 09:56:05;;;;;;;0.30;0.20;;;18.40;99.90;;;;;;5084264;28;20511;-93
2023/11/02 09:58:33;;;;;;;0.30;0.20;;;18.50;99.90;;;;;;5084234;28;21055;-93
2023/11/02 10:01:00;;;;;;;0.30;0.20;;;18.70;99.90;;;;;;5084835;28;20953;-89
2023/11/02 10:03:25;;;;;;;0.30;0.30;;;18.70;99.90;;;;;;5088482;28;20553;-89
2023/11/02 10:05:55;;;;;;;0.30;0.20;;;18.80;99.90;;;;;;5098834;28;20528;-93
2023/11/02 10:08:21;;;;;;;0.30;0.20;;;18.80;99.90;;;;;;5094429;28;20218;-93
2023/11/02 10:10:48;;;;;;;0.30;0.20;;;18.90;99.90;;;;;;5095331;28;20436;-88
2023/11/02 10:13:13;;;;;;;0.40;0.40;;;19.00;99.90;;;;;;5085852;28;20456;-93
2023/11/02 10:15:50;;;;;;;0.30;0.20;;;19.00;99.90;;;;;;5084233;28;20731;-93
2023/11/02 10:18:16;;;;;;;0.30;0.20;;;19.10;99.90;;;;;;5084909;28;20207;-92
2023/11/02 10:20:54;;;;;;;0.30;0.20;;;19.20;99.90;;;;;;5083684;28;20458;-89
2023/11/02 10:23:19;;;;;;;1.03;1.03;;;19.20;99.90;;;;;;5085489;28;20459;-89
2023/11/02 10:25:45;;;;;;;0.30;0.20;;;19.20;99.90;;;;;;5084224;28;20412;-93
2023/11/02 10:28:15;;;;;;;0.30;0.30;;;19.30;99.90;;;;;;5090182;28;20695;-92
2023/11/02 10:30:42;;;;;;;5.20;4.90;;;19.40;99.90;;;;;;5093801;28;20808;-93
2023/11/02 10:33:08;;;;;;;0.30;0.20;;;19.40;99.90;;;;;;5089074;28;20952;-89
2023/11/02 10:35:37;;;;;;;0.30;0.30;;;19.50;99.90;;;;;;5094279;28;21026;-93
2023/11/02 10:38:07;;;;;;;0.30;0.20;;;19.50;99.90;;;;;;5090169;28;20524;-88
2023/11/02 10:40:43;;;;;;;0.30;0.20;;;19.60;99.90;;;;;;5093981;28;20952;-93
2023/11/02 10:43:19;;;;;;;0.30;0.20;;;19.60;99.90;;;;;;5090221;28;20467;-89
2023/11/02 10:45:48;;;;;;;0.30;0.20;;;19.70;99.90;;;;;;5096451;28;20432;-93
2023/11/02 10:48:17;;;;;;;0.30;0.20;;;19.70;99.90;;;;;;5111044;28;21554;-93
2023/11/02 10:50:49;;;;;;;0.30;0.20;;;19.70;99.90;;;;;;5103188;28;21110;-90
2023/11/02 10:53:42;;;;;;;0.30;0.20;;;19.70;99.90;;;;;;5085425;28;21170;-89
2023/11/02 10:56:14;;;;;;;0.30;0.20;;;19.70;99.90;;;;;;5097163;28;20686;-93
2023/11/02 10:58:41;;;;;;;0.30;0.20;;;19.80;99.90;;;;;;5106333;28;20444;-94
2023/11/02 11:01:09;;;;;;;0.30;0.20;;;19.80;99.90;;;;;;5104739;28;20412;-89
2023/11/02 11:03:41;;;;;;;0.30;0.20;;;19.80;99.90;;;;;;5086714;27;21078;-93
2023/11/02 11:06:11;;;;;;;0.30;0.30;;;19.90;99.90;;;;;;5082851;28;20461;-93
2023/11/02 11:08:37;;;;;;;0.83;0.83;;;19.80;99.90;;;;;;5094381;28;21056;-93
2023/11/02 11:11:05;;;;;;;0.30;0.20;;;19.90;99.90;;;;;;5090397;28;20444;-93
2023/11/02 11:13:32;;;;;;;0.30;0.20;;;19.90;99.90;;;;;;5097339;28;21298;-90
2023/11/02 11:15:59;;;;;;;0.30;0.20;;;20.00;99.90;;;;;;5093199;28;20549;-89
2023/11/02 11:18:27;;;;;;;0.30;0.20;;;20.10;99.90;;;;;;5087036;28;20524;-89
2023/11/02 11:20:52;;;;;;;0.30;0.27;;;20.10;99.90;;;;;;5107089;27;21004;-89
2023/11/02 11:23:19;;;;;;;0.37;0.37;;;20.10;99.90;;;;;;5109102;28;20447;-94
2023/11/02 11:26:04;;;;;;;0.30;0.20;;;20.10;99.90;;;;;;5090047;28;20173;-94
2023/11/02 11:28:32;;;;;;;0.40;0.37;;;20.20;99.90;;;;;;5084704;28;20429;-94
2023/11/02 11:30:59;;;;;;;0.30;0.20;;;20.20;99.90;;;;;;5084069;28;20830;-93
2023/11/02 11:33:47;;;;;;;0.30;0.20;;;20.20;99.90;;;;;;5082785;28;20441;-88
2023/11/02 11:36:24;;;;;;;0.83;0.83;;;20.20;99.90;;;;;;5086603;28;21047;-88
2023/11/02 11:38:51;;;;;;;0.30;0.20;;;20.20;99.90;;;;;;5088376;28;20455;-89
2023/11/02 11:41:45;;;;;;;0.30;0.20;;;20.30;99.90;;;;;;5088044;28;21058;-94
2023/11/02 11:44:19;;;;;;;0.30;0.20;;;20.30;99.90;;;;;;5081247;28;20457;-88
2023/11/02 11:46:46;;;;;;;1.17;0.57;;;20.30;99.90;;;;;;5080344;28;20424;-89
2023/11/02 11:49:33;;;;;;;0.30;0.20;;;20.30;99.90;;;;;;5083510;28;20463;-89
2023/11/02 11:52:00;;;;;;;0.30;0.20;;;20.40;99.90;;;;;;5101290;28;20409;-88
2023/11/02 11:54:27;;;;;;;0.30;0.20;;;20.40;99.90;;;;;;5098566;28;20480;-87
2023/11/02 11:56:54;;;;;;;0.30;0.20;;;20.50;99.90;;;;;;5090193;28;20886;-91
2023/11/02 11:59:20;;;;;;;0.30;0.20;;;20.40;99.90;;;;;;5095672;28;20909;-93
2023/11/02 12:02:24;;;;;;;0.30;0.20;;;20.40;99.90;;;;;;5103655;28;20523;-93
2023/11/02 12:04:56;;;;;;;0.30;0.20;;;20.40;99.90;;;;;;5105406;28;20950;-92
2023/11/02 12:07:24;;;;;;;0.30;0.20;;;20.40;99.90;;;;;;5106038;28;20420;-88
2023/11/02 12:09:53;;;;;;;0.30;0.20;;;20.30;99.90;;;;;;5106748;28;20444;-88
2023/11/02 12:12:19;;;;;;;0.30;0.20;;;20.30;99.90;;;;;;5105423;28;20420;-88
2023/11/02 12:14:46;;;;;;;0.30;0.20;;;20.30;99.90;;;;;;5104847;28;20517;-92
2023/11/02 12:17:12;;;;;;;0.30;0.20;;;20.30;99.90;;;;;;5092490;28;20212;-91
2023/11/02 12:19:42;;;;;;;0.30;0.20;;;20.30;99.90;;;;;;5086315;28;20767;-88
2023/11/02 12:22:12;;;;;;;0.40;0.30;;;20.30;99.90;;;;;;5095467;28;20428;-92
2023/11/02 12:24:38;;;;;;;0.30;0.20;;;20.30;99.90;;;;;;5096563;28;21010;-88
2023/11/02 12:27:12;;;;;;;0.30;0.20;;;20.20;99.90;;;;;;5106276;28;20427;-92
2023/11/02 12:29:38;;;;;;;0.30;0.20;;;20.30;99.90;;;;;;5085985;28;20441;-88
2023/11/02 12:32:07;;;;;;;0.30;0.20;;;20.20;99.90;;;;;;5093841;28;20412;-90
2023/11/02 12:34:32;;;;;;;0.30;0.20;;;20.20;99.90;;;;;;5106062;28;20463;-92
2023/11/02 12:36:59;;;;;;;0.30;0.20;;;20.10;99.90;;;;;;5105213;28;20866;-91
2023/11/02 12:39:27;;;;;;;0.50;0.50;;;20.20;99.90;;;;;;5100838;28;20199;-93
2023/11/02 12:41:52;;;;;;;0.30;0.20;;;20.20;99.90;;;;;;5105799;28;20477;-87
2023/11/02 12:44:22;;;;;;;0.30;0.20;;;20.20;99.90;;;;;;5088432;28;20448;-92
2023/11/02 12:46:52;;;;;;;0.30;0.27;;;20.30;99.90;;;;;;5088341;28;20298;-91
2023/11/02 12:49:25;;;;;;;0.30;0.20;;;20.30;99.90;;;;;;5085899;28;20483;-88
2023/11/02 12:51:54;;;;;;;0.30;0.20;;;20.40;99.90;;;;;;5103178;28;20416;-88
2023/11/02 12:54:20;;;;;;;0.30;0.20;;;20.40;99.90;;;;;;5101110;28;20432;-88
2023/11/02 12:56:52;;;;;;;0.30;0.20;;;20.40;99.90;;;;;;5091835;28;20614;-92
2023/11/02 12:59:22;;;;;;;0.30;0.20;;;20.40;99.90;;;;;;5080284;28;20973;-88
2023/11/02 13:01:53;;;;;;;0.30;0.20;;;20.30;99.90;;;;;;5101021;28;20408;-92